Time;durP1;ratioP1;P1;durP2;ratioP2;P2;SDS_P1;SDS_P2;PMS_P1;PMS_P2;Temp;Humidity;BMP_temperature;BMP_pressure;BME280_temperature;BME280_humidity;BME280_pressure;Samples;Min_cycle;Max_cycle;Signal;HPM_P1;HPM_P2
2021/10/04 00:01:01;;;;;;;6.83;4.70;;;;;;;;;;4938712;28;20571;-74
2021/10/04 00:03:26;;;;;;;11.67;5.00;;;;;;;;;;4936669;28;20574;-74
2021/10/04 00:05:51;;;;;;;6.80;5.33;;;;;;;;;;4943229;28;20674;-74
2021/10/04 00:08:16;;;;;;;6.53;4.50;;;;;;;;;;4941575;28;20631;-75
2021/10/04 00:10:42;;;;;;;7.63;5.03;;;;;;;;;;4943646;28;20289;-74
2021/10/04 00:13:07;;;;;;;8.30;5.20;;;;;;;;;;4938114;28;20195;-74
2021/10/04 00:15:32;;;;;;;10.60;5.20;;;;;;;;;;4939426;28;20176;-74
2021/10/04 00:17:58;;;;;;;6.10;4.30;;;;;;;;;;4941501;28;20211;-74
2021/10/04 00:20:25;;;;;;;9.53;4.07;;;;;;;;;;4937486;28;20188;-74
2021/10/04 00:22:50;;;;;;;8.80;4.80;;;;;;;;;;4939207;28;20463;-74
2021/10/04 00:25:15;;;;;;;8.30;4.50;;;;;;;;;;4940919;28;20504;-75
2021/10/04 00:27:41;;;;;;;5.93;4.20;;;;;;;;;;4936079;28;20239;-74
2021/10/04 00:30:07;;;;;;;8.73;4.37;;;;;;;;;;4938053;28;20370;-74
2021/10/04 00:32:36;;;;;;;5.53;4.17;;;;;;;;;;4938073;28;20207;-74
2021/10/04 00:35:02;;;;;;;10.60;4.77;;;;;;;;;;4938647;28;20432;-74
2021/10/04 00:37:27;;;;;;;6.83;3.93;;;;;;;;;;4943011;28;20804;-74
2021/10/04 00:39:52;;;;;;;6.73;3.77;;;;;;;;;;4941111;28;20432;-74
2021/10/04 00:42:20;;;;;;;5.87;3.30;;;;;;;;;;4942003;28;20208;-74
2021/10/04 00:44:45;;;;;;;7.10;3.50;;;;;;;;;;4941900;28;20663;-74
2021/10/04 00:47:11;;;;;;;9.30;3.70;;;;;;;;;;4938996;28;20449;-74
2021/10/04 00:49:36;;;;;;;4.07;2.93;;;;;;;;;;4936465;28;20315;-74
2021/10/04 00:52:01;;;;;;;9.57;2.50;;;;;;;;;;4945236;28;20233;-75
2021/10/04 00:54:26;;;;;;;4.73;3.10;;;;;;;;;;4939692;28;20183;-74
2021/10/04 00:56:52;;;;;;;7.77;3.93;;;;;;;;;;4948318;28;20666;-75
2021/10/04 00:59:18;;;;;;;7.30;3.03;;;;;;;;;;4940757;28;20897;-75
2021/10/04 01:01:44;;;;;;;9.10;3.80;;;;;;;;;;4951800;28;20191;-74
2021/10/04 01:04:09;;;;;;;5.53;2.80;;;;;;;;;;4936443;28;20461;-74
2021/10/04 01:06:34;;;;;;;8.33;3.40;;;;;;;;;;4937301;28;20234;-74
2021/10/04 01:09:00;;;;;;;4.87;3.07;;;;;;;;;;4937349;28;20282;-75
2021/10/04 01:11:25;;;;;;;4.83;2.67;;;;;;;;;;4939766;28;20186;-74
2021/10/04 01:13:50;;;;;;;6.57;3.37;;;;;;;;;;4937174;28;20249;-74
2021/10/04 01:16:15;;;;;;;6.17;2.90;;;;;;;;;;4937052;28;20332;-74
2021/10/04 01:18:41;;;;;;;8.20;3.47;;;;;;;;;;4940917;28;20636;-75
2021/10/04 01:21:07;;;;;;;4.30;2.90;;;;;;;;;;4937815;28;20187;-75
2021/10/04 01:23:32;;;;;;;4.67;2.77;;;;;;;;;;4941272;28;20459;-74
2021/10/04 01:25:58;;;;;;;9.20;3.37;;;;;;;;;;4933871;28;20184;-74
2021/10/04 01:28:23;;;;;;;6.90;3.63;;;;;;;;;;4941470;28;20184;-74
2021/10/04 01:30:49;;;;;;;5.23;2.83;;;;;;;;;;4940678;28;20471;-75
2021/10/04 01:33:14;;;;;;;6.33;3.50;;;;;;;;;;4940093;28;20211;-74
2021/10/04 01:35:39;;;;;;;5.83;3.40;;;;;;;;;;4939797;28;20278;-74
2021/10/04 01:38:05;;;;;;;3.60;2.40;;;;;;;;;;4943078;28;20175;-75
2021/10/04 01:40:30;;;;;;;7.23;2.57;;;;;;;;;;4936502;28;20186;-74
2021/10/04 01:42:56;;;;;;;4.17;3.10;;;;;;;;;;4938204;28;20207;-74
2021/10/04 01:45:23;;;;;;;4.40;3.17;;;;;;;;;;4934551;28;20183;-75
2021/10/04 01:47:48;;;;;;;6.43;3.10;;;;;;;;;;4938422;28;20195;-75
2021/10/04 01:50:15;;;;;;;5.23;2.50;;;;;;;;;;4934554;28;20463;-75
2021/10/04 01:52:40;;;;;;;8.83;3.50;;;;;;;;;;4936382;28;20203;-74
2021/10/04 01:55:06;;;;;;;5.13;3.27;;;;;;;;;;4937482;28;20432;-75
2021/10/04 01:57:32;;;;;;;4.17;2.37;;;;;;;;;;4935563;28;20710;-74
2021/10/04 02:00:01;;;;;;;6.63;2.80;;;;;;;;;;4935166;28;21010;-75
2021/10/04 02:02:27;;;;;;;4.90;2.60;;;;;;;;;;4939055;28;20743;-75
2021/10/04 02:04:52;;;;;;;5.90;2.87;;;;;;;;;;4935793;28;20438;-74
2021/10/04 02:07:17;;;;;;;4.70;2.47;;;;;;;;;;4935414;28;20655;-74
2021/10/04 02:09:42;;;;;;;3.97;2.63;;;;;;;;;;4937210;28;20676;-74
2021/10/04 02:12:08;;;;;;;4.90;2.67;;;;;;;;;;4936886;28;20257;-74
2021/10/04 02:14:33;;;;;;;3.77;3.00;;;;;;;;;;4933903;28;20310;-74
2021/10/04 02:16:58;;;;;;;4.00;2.27;;;;;;;;;;4934458;28;20648;-74
2021/10/04 02:19:23;;;;;;;5.20;2.40;;;;;;;;;;4937366;28;20636;-74
2021/10/04 02:21:49;;;;;;;3.83;2.00;;;;;;;;;;4937737;28;20561;-74
2021/10/04 02:24:14;;;;;;;3.20;2.07;;;;;;;;;;4938985;28;20194;-74
2021/10/04 02:26:40;;;;;;;3.47;2.37;;;;;;;;;;4934021;28;20191;-75
2021/10/04 02:29:05;;;;;;;3.50;1.90;;;;;;;;;;4933754;28;20302;-74
2021/10/04 02:31:31;;;;;;;3.60;1.90;;;;;;;;;;4934024;28;20568;-74
2021/10/04 02:33:56;;;;;;;10.73;2.93;;;;;;;;;;4934563;28;20210;-75
2021/10/04 02:36:24;;;;;;;5.93;2.67;;;;;;;;;;4944204;28;21837;-74
2021/10/04 02:38:50;;;;;;;8.20;2.20;;;;;;;;;;4936705;28;20186;-76
2021/10/04 02:41:15;;;;;;;5.27;2.40;;;;;;;;;;4937032;28;20439;-74
2021/10/04 02:43:41;;;;;;;6.50;2.43;;;;;;;;;;4936394;28;20478;-75
2021/10/04 02:46:06;;;;;;;4.57;2.50;;;;;;;;;;4934132;28;20241;-75
2021/10/04 02:48:31;;;;;;;8.13;1.93;;;;;;;;;;4937116;28;20491;-74
2021/10/04 02:50:56;;;;;;;5.30;2.33;;;;;;;;;;4940140;28;20243;-74
2021/10/04 02:53:21;;;;;;;2.80;2.40;;;;;;;;;;4935371;28;20715;-75
2021/10/04 02:55:47;;;;;;;10.57;2.17;;;;;;;;;;4936844;28;20213;-74
2021/10/04 02:58:12;;;;;;;4.07;2.50;;;;;;;;;;4936218;28;20206;-74
2021/10/04 03:00:38;;;;;;;3.60;2.17;;;;;;;;;;4933294;28;20191;-74
2021/10/04 03:03:04;;;;;;;4.87;2.20;;;;;;;;;;4938489;28;20206;-74
2021/10/04 03:05:29;;;;;;;2.77;1.73;;;;;;;;;;4936201;28;20498;-74
2021/10/04 03:07:55;;;;;;;10.40;2.20;;;;;;;;;;4931064;28;20754;-74
2021/10/04 03:10:20;;;;;;;3.80;2.03;;;;;;;;;;4938047;28;20321;-75
2021/10/04 03:12:45;;;;;;;4.50;2.50;;;;;;;;;;4935436;28;20225;-75
2021/10/04 03:15:10;;;;;;;4.40;2.20;;;;;;;;;;4949405;28;20183;-75
2021/10/04 03:17:36;;;;;;;6.77;1.70;;;;;;;;;;4942242;28;20607;-74
2021/10/04 03:20:01;;;;;;;6.43;2.07;;;;;;;;;;4940026;28;20183;-74
2021/10/04 03:22:26;;;;;;;3.40;2.00;;;;;;;;;;4938627;28;20266;-74
2021/10/04 03:24:51;;;;;;;5.07;1.80;;;;;;;;;;4941519;29;20229;-74
2021/10/04 03:27:17;;;;;;;4.20;1.63;;;;;;;;;;4940394;28;20191;-74
2021/10/04 03:29:42;;;;;;;5.80;1.80;;;;;;;;;;4941031;28;20207;-74
2021/10/04 03:32:07;;;;;;;5.73;1.90;;;;;;;;;;4939948;28;20691;-74
2021/10/04 03:34:33;;;;;;;3.70;1.70;;;;;;;;;;4938540;28;20576;-74
2021/10/04 03:37:00;;;;;;;6.57;1.80;;;;;;;;;;4938412;28;20276;-74
2021/10/04 03:39:26;;;;;;;6.67;2.03;;;;;;;;;;4938443;28;20192;-75
2021/10/04 03:41:52;;;;;;;3.17;1.50;;;;;;;;;;4936623;28;20442;-74
2021/10/04 03:44:17;;;;;;;2.23;1.50;;;;;;;;;;4937110;28;20185;-74
2021/10/04 03:46:42;;;;;;;4.97;1.70;;;;;;;;;;4939079;28;20545;-74
2021/10/04 03:49:07;;;;;;;5.60;2.23;;;;;;;;;;4937610;28;20211;-74
2021/10/04 03:51:33;;;;;;;6.13;1.73;;;;;;;;;;4940248;28;20191;-74
2021/10/04 03:53:58;;;;;;;5.43;1.67;;;;;;;;;;4941948;28;20341;-75
2021/10/04 03:56:24;;;;;;;1.47;1.20;;;;;;;;;;4940322;28;20205;-75
2021/10/04 03:58:49;;;;;;;1.90;1.57;;;;;;;;;;4938531;28;20183;-74
2021/10/04 04:01:14;;;;;;;4.33;1.60;;;;;;;;;;4939249;28;20263;-75
2021/10/04 04:03:39;;;;;;;6.37;1.90;;;;;;;;;;4940644;28;20656;-75
2021/10/04 04:06:05;;;;;;;5.50;1.50;;;;;;;;;;4946903;28;20191;-74
2021/10/04 04:08:30;;;;;;;3.93;1.97;;;;;;;;;;4940368;28;20187;-74
2021/10/04 04:10:56;;;;;;;5.60;1.67;;;;;;;;;;4943370;28;20199;-74
2021/10/04 04:13:21;;;;;;;2.53;1.40;;;;;;;;;;4943570;28;20207;-74
2021/10/04 04:15:46;;;;;;;1.67;1.47;;;;;;;;;;4941752;28;20171;-74
2021/10/04 04:18:12;;;;;;;4.40;1.73;;;;;;;;;;4942241;28;20179;-74
2021/10/04 04:20:37;;;;;;;2.80;1.37;;;;;;;;;;4941577;28;20183;-74
2021/10/04 04:23:02;;;;;;;3.73;1.87;;;;;;;;;;4943534;28;20269;-74
2021/10/04 04:25:28;;;;;;;3.73;1.63;;;;;;;;;;4943435;28;20195;-74
2021/10/04 04:27:58;;;;;;;4.33;1.40;;;;;;;;;;4943582;28;20190;-74
2021/10/04 04:30:26;;;;;;;6.53;2.07;;;;;;;;;;4944895;28;20195;-75
2021/10/04 04:32:51;;;;;;;3.50;1.70;;;;;;;;;;4941691;28;20450;-75
2021/10/04 04:35:16;;;;;;;4.03;1.97;;;;;;;;;;4939199;28;20763;-75
2021/10/04 04:37:42;;;;;;;3.40;1.70;;;;;;;;;;4941769;28;20235;-75
2021/10/04 04:40:09;;;;;;;2.50;1.60;;;;;;;;;;4939649;28;20249;-74
2021/10/04 04:42:35;;;;;;;3.90;1.40;;;;;;;;;;4939152;28;20521;-75
2021/10/04 04:45:00;;;;;;;4.10;1.50;;;;;;;;;;4935638;28;20775;-75
2021/10/04 04:47:25;;;;;;;5.33;1.67;;;;;;;;;;4933881;28;20179;-74
2021/10/04 04:49:50;;;;;;;3.50;1.30;;;;;;;;;;4939084;28;20204;-74
2021/10/04 04:52:16;;;;;;;4.20;1.60;;;;;;;;;;4943090;28;20204;-74
2021/10/04 04:54:41;;;;;;;1.77;1.20;;;;;;;;;;4944307;28;20179;-75
2021/10/04 04:57:06;;;;;;;4.20;1.60;;;;;;;;;;4938109;28;20183;-74
2021/10/04 04:59:32;;;;;;;2.20;1.37;;;;;;;;;;4943464;28;20185;-74
2021/10/04 05:01:57;;;;;;;2.60;1.43;;;;;;;;;;4919313;28;20242;-74
2021/10/04 05:04:23;;;;;;;3.67;1.43;;;;;;;;;;4937585;28;20190;-74
2021/10/04 05:06:48;;;;;;;2.00;1.20;;;;;;;;;;4939898;28;20191;-74
2021/10/04 05:09:14;;;;;;;5.03;1.60;;;;;;;;;;4936479;28;20191;-74
2021/10/04 05:11:39;;;;;;;3.37;1.30;;;;;;;;;;4943014;28;20321;-74
2021/10/04 05:14:04;;;;;;;4.60;1.53;;;;;;;;;;4944115;28;20248;-74
2021/10/04 05:16:30;;;;;;;3.10;1.57;;;;;;;;;;4939891;28;20189;-74
2021/10/04 05:18:55;;;;;;;4.73;1.50;;;;;;;;;;4935227;28;20183;-74
2021/10/04 05:21:21;;;;;;;4.80;1.70;;;;;;;;;;4936029;28;20189;-74
2021/10/04 05:23:46;;;;;;;2.07;1.40;;;;;;;;;;4933255;28;20234;-74
2021/10/04 05:26:11;;;;;;;2.17;1.70;;;;;;;;;;4933159;28;20215;-74
2021/10/04 05:28:37;;;;;;;3.37;1.37;;;;;;;;;;4939747;28;20231;-74
2021/10/04 05:31:02;;;;;;;3.97;1.83;;;;;;;;;;4938786;28;20257;-74
2021/10/04 05:33:28;;;;;;;3.00;1.50;;;;;;;;;;4937167;28;20297;-74
2021/10/04 05:35:53;;;;;;;7.53;1.73;;;;;;;;;;4937329;28;20172;-74
2021/10/04 05:38:18;;;;;;;4.63;1.87;;;;;;;;;;4932983;28;20649;-74
2021/10/04 05:40:43;;;;;;;2.10;1.17;;;;;;;;;;4936871;28;20187;-74
2021/10/04 05:43:09;;;;;;;3.37;1.83;;;;;;;;;;4930997;28;20299;-74
2021/10/04 05:45:34;;;;;;;3.53;1.90;;;;;;;;;;4934284;28;20187;-74
2021/10/04 05:47:59;;;;;;;4.43;1.77;;;;;;;;;;4934414;28;20202;-74
2021/10/04 05:50:25;;;;;;;2.40;1.97;;;;;;;;;;4934454;28;20207;-74
2021/10/04 05:52:51;;;;;;;3.97;2.03;;;;;;;;;;4935921;28;20199;-74
2021/10/04 05:55:16;;;;;;;2.17;1.43;;;;;;;;;;4934282;28;20179;-74
2021/10/04 05:57:43;;;;;;;4.30;1.57;;;;;;;;;;4935388;28;20187;-74
2021/10/04 06:00:08;;;;;;;5.40;1.50;;;;;;;;;;4936289;28;20211;-75
2021/10/04 06:02:34;;;;;;;3.23;1.30;;;;;;;;;;4936168;28;20542;-74
2021/10/04 06:04:59;;;;;;;5.93;1.33;;;;;;;;;;4935915;28;20195;-74
2021/10/04 06:07:24;;;;;;;3.60;1.57;;;;;;;;;;4932452;28;20546;-74
2021/10/04 06:09:49;;;;;;;3.57;1.50;;;;;;;;;;4936517;28;20207;-74
2021/10/04 06:12:15;;;;;;;4.10;1.50;;;;;;;;;;4937603;28;20202;-74
2021/10/04 06:14:40;;;;;;;4.10;1.50;;;;;;;;;;4934764;28;20776;-74
2021/10/04 06:17:05;;;;;;;4.20;1.83;;;;;;;;;;4932227;28;20210;-74
2021/10/04 06:19:31;;;;;;;5.20;1.67;;;;;;;;;;4939042;28;20545;-73
2021/10/04 06:21:56;;;;;;;6.10;1.43;;;;;;;;;;4937402;28;20559;-74
2021/10/04 06:24:21;;;;;;;2.60;1.33;;;;;;;;;;4932048;28;23800;-74
2021/10/04 06:26:46;;;;;;;4.40;1.43;;;;;;;;;;4929258;28;20247;-74
2021/10/04 06:29:12;;;;;;;4.00;1.70;;;;;;;;;;4937841;28;20258;-74
2021/10/04 06:31:37;;;;;;;3.63;1.63;;;;;;;;;;4934151;28;20269;-74
2021/10/04 06:34:03;;;;;;;3.57;1.40;;;;;;;;;;4929629;28;20305;-74
2021/10/04 06:36:28;;;;;;;3.10;1.50;;;;;;;;;;4927019;28;20187;-74
2021/10/04 06:38:54;;;;;;;4.70;1.50;;;;;;;;;;4934339;28;21158;-74
2021/10/04 06:41:19;;;;;;;4.10;1.97;;;;;;;;;;4931956;28;20317;-74
2021/10/04 06:43:44;;;;;;;8.17;1.57;;;;;;;;;;4933967;28;20202;-74
2021/10/04 06:46:09;;;;;;;6.20;1.97;;;;;;;;;;4933829;28;20219;-74
2021/10/04 06:48:36;;;;;;;3.47;1.80;;;;;;;;;;4935762;28;20194;-74
2021/10/04 06:51:01;;;;;;;3.47;2.03;;;;;;;;;;4927592;28;20210;-75
2021/10/04 06:53:26;;;;;;;5.23;1.87;;;;;;;;;;4932123;28;20457;-74
2021/10/04 06:55:51;;;;;;;3.70;1.67;;;;;;;;;;4934673;28;20183;-73
2021/10/04 06:58:17;;;;;;;3.73;1.77;;;;;;;;;;4932722;28;20180;-74
2021/10/04 07:00:42;;;;;;;4.03;1.50;;;;;;;;;;4933593;28;20180;-74
2021/10/04 07:03:07;;;;;;;2.63;1.17;;;;;;;;;;4933030;28;20797;-74
2021/10/04 07:05:32;;;;;;;3.83;1.23;;;;;;;;;;4934673;28;20271;-75
2021/10/04 07:07:58;;;;;;;4.50;1.50;;;;;;;;;;4932083;28;20198;-74
2021/10/04 07:10:24;;;;;;;5.50;1.70;;;;;;;;;;4929660;28;20301;-74
2021/10/04 07:12:49;;;;;;;6.03;2.27;;;;;;;;;;4933486;28;20696;-74
2021/10/04 07:15:15;;;;;;;5.20;1.80;;;;;;;;;;4934219;28;20449;-75
2021/10/04 07:17:40;;;;;;;1.77;1.40;;;;;;;;;;4925309;28;21292;-75
2021/10/04 07:20:06;;;;;;;5.27;2.03;;;;;;;;;;4932883;28;20230;-75
2021/10/04 07:22:31;;;;;;;5.57;1.70;;;;;;;;;;4932121;28;20238;-75
2021/10/04 07:24:56;;;;;;;2.27;1.60;;;;;;;;;;4930580;28;20203;-75
2021/10/04 07:27:22;;;;;;;5.30;1.43;;;;;;;;;;4930612;28;20198;-74
2021/10/04 07:29:47;;;;;;;4.33;1.77;;;;;;;;;;4932850;28;20204;-74
2021/10/04 07:32:12;;;;;;;5.33;1.80;;;;;;;;;;4932648;28;20254;-74
2021/10/04 07:34:38;;;;;;;2.30;1.10;;;;;;;;;;4929810;28;20167;-75
2021/10/04 07:37:06;;;;;;;5.70;1.70;;;;;;;;;;4930490;28;20340;-74
2021/10/04 07:39:31;;;;;;;6.57;1.60;;;;;;;;;;4929780;28;20192;-75
2021/10/04 07:41:57;;;;;;;3.07;1.30;;;;;;;;;;4934426;28;20497;-73
2021/10/04 07:44:22;;;;;;;5.43;1.60;;;;;;;;;;4935501;28;20184;-74
2021/10/04 07:46:49;;;;;;;7.70;2.00;;;;;;;;;;4927993;28;20436;-74
2021/10/04 07:49:14;;;;;;;3.13;1.60;;;;;;;;;;4926013;28;20680;-74
2021/10/04 07:51:39;;;;;;;2.63;1.80;;;;;;;;;;4933795;28;20458;-74
2021/10/04 07:54:05;;;;;;;2.77;1.80;;;;;;;;;;4933861;28;20207;-74
2021/10/04 07:56:30;;;;;;;3.37;1.60;;;;;;;;;;4931026;28;20344;-75
2021/10/04 07:58:55;;;;;;;9.40;1.63;;;;;;;;;;4933244;28;20187;-74
2021/10/04 08:01:21;;;;;;;2.23;1.73;;;;;;;;;;4937922;28;20568;-75
2021/10/04 08:03:46;;;;;;;3.53;1.63;;;;;;;;;;4936946;28;20214;-74
2021/10/04 08:06:12;;;;;;;4.10;1.57;;;;;;;;;;4933192;28;20183;-74
2021/10/04 08:08:39;;;;;;;7.93;2.07;;;;;;;;;;4935799;28;20190;-73
2021/10/04 08:11:05;;;;;;;2.47;1.30;;;;;;;;;;4932297;28;20473;-74
2021/10/04 08:13:30;;;;;;;7.20;1.83;;;;;;;;;;4936690;28;20458;-74
2021/10/04 08:15:56;;;;;;;8.77;1.70;;;;;;;;;;4936907;28;20239;-74
2021/10/04 08:18:21;;;;;;;6.53;1.60;;;;;;;;;;4936458;28;20183;-74
2021/10/04 08:20:47;;;;;;;3.57;1.80;;;;;;;;;;4938900;28;20563;-74
2021/10/04 08:23:13;;;;;;;5.20;1.43;;;;;;;;;;4932697;28;24403;-74
2021/10/04 08:25:39;;;;;;;5.60;1.30;;;;;;;;;;4936594;28;20436;-74
2021/10/04 08:28:04;;;;;;;3.13;1.90;;;;;;;;;;4936575;28;20458;-73
2021/10/04 08:30:29;;;;;;;4.57;2.00;;;;;;;;;;4935721;28;20238;-73
2021/10/04 08:32:54;;;;;;;3.87;1.70;;;;;;;;;;4936206;28;20393;-73
2021/10/04 08:35:20;;;;;;;6.40;1.73;;;;;;;;;;4937293;28;20237;-74
2021/10/04 08:37:45;;;;;;;5.60;1.53;;;;;;;;;;4934888;28;20183;-73
2021/10/04 08:40:12;;;;;;;4.80;1.40;;;;;;;;;;4941027;28;20199;-74
2021/10/04 08:42:38;;;;;;;5.60;1.70;;;;;;;;;;4937868;28;20684;-73
2021/10/04 08:45:03;;;;;;;6.10;1.67;;;;;;;;;;4938069;28;20450;-75
2021/10/04 08:47:30;;;;;;;6.70;1.90;;;;;;;;;;4931130;28;20446;-73
2021/10/04 08:49:55;;;;;;;4.20;1.47;;;;;;;;;;4936882;28;20806;-74
2021/10/04 08:52:21;;;;;;;5.80;2.03;;;;;;;;;;4932945;28;20459;-73
2021/10/04 08:54:46;;;;;;;3.17;1.33;;;;;;;;;;4931815;28;20242;-73
2021/10/04 08:57:12;;;;;;;2.90;1.50;;;;;;;;;;4935604;28;20180;-74
2021/10/04 08:59:37;;;;;;;3.13;1.80;;;;;;;;;;4936626;28;20617;-74
2021/10/04 09:02:19;;;;;;;4.93;1.87;;;;;;;;;;4935728;28;20188;-74
2021/10/04 09:04:44;;;;;;;5.47;1.87;;;;;;;;;;4934986;28;20265;-74
2021/10/04 09:07:09;;;;;;;4.50;1.73;;;;;;;;;;4936754;28;20502;-74
2021/10/04 09:09:50;;;;;;;4.10;1.40;;;;;;;;;;4935036;28;20511;-74
2021/10/04 09:12:21;;;;;;;6.90;1.73;;;;;;;;;;4933316;28;21252;-73
2021/10/04 09:14:46;;;;;;;6.23;2.20;;;;;;;;;;4934692;28;20431;-73
2021/10/04 09:17:13;;;;;;;4.83;1.43;;;;;;;;;;4939418;28;20521;-74
2021/10/04 09:19:40;;;;;;;3.87;1.30;;;;;;;;;;4938045;28;20192;-73
2021/10/04 09:22:05;;;;;;;8.03;1.60;;;;;;;;;;4936488;28;20435;-73
2021/10/04 09:24:30;;;;;;;4.30;1.93;;;;;;;;;;4930220;28;20949;-74
2021/10/04 09:26:56;;;;;;;4.00;1.50;;;;;;;;;;4927614;28;20203;-73
2021/10/04 09:29:21;;;;;;;3.53;1.40;;;;;;;;;;4928219;28;20892;-74
2021/10/04 09:31:47;;;;;;;3.73;1.90;;;;;;;;;;4931641;28;20893;-74
2021/10/04 09:34:19;;;;;;;4.13;1.53;;;;;;;;;;4935750;28;20282;-74
2021/10/04 09:36:54;;;;;;;2.43;1.27;;;;;;;;;;4933195;28;20895;-76
2021/10/04 09:39:33;;;;;;;3.37;1.27;;;;;;;;;;4932712;28;20470;-75
2021/10/04 09:42:00;;;;;;;5.50;2.07;;;;;;;;;;4929738;28;20439;-74
2021/10/04 09:44:28;;;;;;;3.43;1.50;;;;;;;;;;4931762;28;20440;-74
2021/10/04 09:47:15;;;;;;;4.07;1.57;;;;;;;;;;4928113;28;20507;-74
2021/10/04 09:49:51;;;;;;;4.47;1.67;;;;;;;;;;4933129;28;20470;-74
2021/10/04 09:52:17;;;;;;;3.53;1.63;;;;;;;;;;4930974;28;20812;-74
2021/10/04 09:54:46;;;;;;;3.67;1.70;;;;;;;;;;4932124;28;20449;-74
2021/10/04 09:57:19;;;;;;;3.03;1.20;;;;;;;;;;4937269;28;20923;-74
2021/10/04 09:59:44;;;;;;;5.40;1.60;;;;;;;;;;4934693;28;20502;-74
2021/10/04 10:02:12;;;;;;;4.93;1.60;;;;;;;;;;4930540;28;20541;-74
2021/10/04 10:04:38;;;;;;;6.63;1.73;;;;;;;;;;4934898;28;20180;-73
2021/10/04 10:07:03;;;;;;;6.17;2.03;;;;;;;;;;4933915;28;20444;-73
2021/10/04 10:09:28;;;;;;;12.40;1.93;;;;;;;;;;4935422;28;20240;-73
2021/10/04 10:11:53;;;;;;;1.80;1.63;;;;;;;;;;4936855;28;20188;-74
2021/10/04 10:14:19;;;;;;;2.27;1.47;;;;;;;;;;4930138;28;20679;-74
2021/10/04 10:16:50;;;;;;;8.33;1.80;;;;;;;;;;4926524;28;20202;-75
2021/10/04 10:19:18;;;;;;;3.20;1.40;;;;;;;;;;4932506;28;20186;-74
2021/10/04 10:21:43;;;;;;;3.87;1.77;;;;;;;;;;4936949;28;20431;-75
2021/10/04 10:24:10;;;;;;;3.27;1.50;;;;;;;;;;4940647;28;20569;-74
2021/10/04 10:26:36;;;;;;;3.60;1.70;;;;;;;;;;4933103;28;20195;-74
2021/10/04 10:29:12;;;;;;;5.43;2.00;;;;;;;;;;4934987;28;20446;-74
2021/10/04 10:31:50;;;;;;;3.27;1.63;;;;;;;;;;4935154;28;20750;-74
2021/10/04 10:34:24;;;;;;;4.50;1.40;;;;;;;;;;4939661;28;20485;-74
2021/10/04 10:37:08;;;;;;;3.87;1.30;;;;;;;;;;4935221;28;20461;-74
2021/10/04 10:39:51;;;;;;;4.53;1.50;;;;;;;;;;4936994;28;20442;-74
2021/10/04 10:42:17;;;;;;;2.73;1.30;;;;;;;;;;4937660;28;20469;-74
2021/10/04 10:44:54;;;;;;;4.93;1.60;;;;;;;;;;4928678;28;20447;-74
2021/10/04 10:50:05;;;;;;;9.70;1.90;;;;;;;;;;4935826;28;20481;-74
2021/10/04 10:52:31;;;;;;;4.40;1.40;;;;;;;;;;4935168;28;20498;-74
2021/10/04 10:54:57;;;;;;;5.07;1.40;;;;;;;;;;4931490;28;20533;-75
2021/10/04 10:57:23;;;;;;;5.23;1.60;;;;;;;;;;4933300;28;20442;-74
2021/10/04 11:00:06;;;;;;;8.27;1.70;;;;;;;;;;4932228;28;20926;-74
2021/10/04 11:02:49;;;;;;;5.37;1.67;;;;;;;;;;4930557;28;20471;-74
2021/10/04 11:05:33;;;;;;;1.83;1.00;;;;;;;;;;4937371;28;20545;-74
2021/10/04 11:07:58;;;;;;;5.57;1.40;;;;;;;;;;4936570;28;20450;-75
2021/10/04 11:10:23;;;;;;;3.40;1.50;;;;;;;;;;4937121;28;20466;-75
2021/10/04 11:13:09;;;;;;;4.97;1.50;;;;;;;;;;4938303;28;20199;-74
2021/10/04 11:15:39;;;;;;;7.70;1.50;;;;;;;;;;4938098;28;20593;-74
2021/10/04 11:18:05;;;;;;;4.63;1.43;;;;;;;;;;4937182;28;20945;-74
2021/10/04 11:20:30;;;;;;;3.70;1.40;;;;;;;;;;4937408;28;20526;-74
2021/10/04 11:23:09;;;;;;;4.20;1.13;;;;;;;;;;4925610;28;20238;-74
2021/10/04 11:25:41;;;;;;;12.23;1.40;;;;;;;;;;4933482;28;20183;-75
2021/10/04 11:28:06;;;;;;;7.40;1.80;;;;;;;;;;4931889;28;20431;-74
2021/10/04 11:30:50;;;;;;;4.50;1.60;;;;;;;;;;4931646;28;20499;-73
2021/10/04 11:33:15;;;;;;;1.83;1.40;;;;;;;;;;4930785;28;20195;-74
2021/10/04 11:35:52;;;;;;;5.20;1.27;;;;;;;;;;4934714;28;20840;-74
2021/10/04 11:38:18;;;;;;;6.83;1.83;;;;;;;;;;4939144;28;20167;-77
2021/10/04 11:40:45;;;;;;;3.63;1.30;;;;;;;;;;4935415;28;20450;-74
2021/10/04 11:43:10;;;;;;;5.63;1.30;;;;;;;;;;4937763;28;20211;-75
2021/10/04 11:45:36;;;;;;;5.27;1.53;;;;;;;;;;4936581;28;20450;-74
2021/10/04 11:48:01;;;;;;;8.53;1.93;;;;;;;;;;4934276;28;20183;-76
2021/10/04 11:50:27;;;;;;;11.50;2.13;;;;;;;;;;4938783;28;24448;-74
2021/10/04 11:52:53;;;;;;;10.57;1.53;;;;;;;;;;4935918;28;20674;-76
2021/10/04 11:55:20;;;;;;;4.90;1.33;;;;;;;;;;4930897;28;20190;-74
2021/10/04 11:57:45;;;;;;;5.13;1.67;;;;;;;;;;4931023;28;20880;-76
2021/10/04 12:00:12;;;;;;;5.47;1.10;;;;;;;;;;4935157;28;20449;-76
2021/10/04 12:02:47;;;;;;;6.90;1.13;;;;;;;;;;4940092;28;20213;-74
2021/10/04 12:05:21;;;;;;;11.27;1.53;;;;;;;;;;4938400;28;20522;-75
2021/10/04 12:07:55;;;;;;;4.47;1.40;;;;;;;;;;4938242;28;20437;-75
2021/10/04 12:10:20;;;;;;;5.23;1.43;;;;;;;;;;4936140;28;20954;-77
2021/10/04 12:12:46;;;;;;;10.50;1.43;;;;;;;;;;4935684;28;20472;-75
2021/10/04 12:15:11;;;;;;;6.10;1.47;;;;;;;;;;4940973;28;20250;-75
2021/10/04 12:17:37;;;;;;;3.90;1.30;;;;;;;;;;4938866;28;20691;-75
2021/10/04 12:20:03;;;;;;;5.37;1.53;;;;;;;;;;4939932;28;20197;-75
2021/10/04 12:22:33;;;;;;;4.90;1.20;;;;;;;;;;4934083;28;20464;-75
2021/10/04 12:24:58;;;;;;;5.30;1.00;;;;;;;;;;4937573;28;20450;-75
2021/10/04 12:27:24;;;;;;;3.23;1.20;;;;;;;;;;4939392;28;20438;-72
2021/10/04 12:29:57;;;;;;;4.97;1.07;;;;;;;;;;4934390;28;20203;-71
2021/10/04 12:32:35;;;;;;;5.60;1.00;;;;;;;;;;4935127;28;20256;-72
2021/10/04 12:35:11;;;;;;;6.57;1.37;;;;;;;;;;4936497;28;20924;-71
2021/10/04 12:37:39;;;;;;;4.23;1.20;;;;;;;;;;4938607;28;20845;-72
2021/10/04 12:40:21;;;;;;;6.60;1.10;;;;;;;;;;4933080;28;25155;-72
2021/10/04 12:42:47;;;;;;;9.00;1.10;;;;;;;;;;4934627;28;20467;-74
2021/10/04 12:45:13;;;;;;;4.20;1.17;;;;;;;;;;4932899;28;20505;-73
2021/10/04 12:47:59;;;;;;;4.10;1.00;;;;;;;;;;4931622;28;20276;-74
2021/10/04 12:50:25;;;;;;;3.37;1.13;;;;;;;;;;4939883;28;20519;-73
2021/10/04 12:52:51;;;;;;;3.30;0.80;;;;;;;;;;4935323;28;20517;-73
2021/10/04 12:55:16;;;;;;;4.73;1.73;;;;;;;;;;4935280;28;20951;-73
2021/10/04 12:57:42;;;;;;;3.10;1.50;;;;;;;;;;4934860;28;20179;-73
2021/10/04 13:00:08;;;;;;;3.67;1.23;;;;;;;;;;4938171;28;20183;-75
2021/10/04 13:02:36;;;;;;;3.23;0.80;;;;;;;;;;4937112;28;20265;-73
2021/10/04 13:05:05;;;;;;;3.83;1.00;;;;;;;;;;4937378;28;20478;-74
2021/10/04 13:07:33;;;;;;;3.37;1.20;;;;;;;;;;4937841;28;20455;-73
2021/10/04 13:09:58;;;;;;;5.03;0.90;;;;;;;;;;4936085;28;25164;-75
2021/10/04 13:12:25;;;;;;;5.50;1.13;;;;;;;;;;4938482;28;25114;-75
2021/10/04 13:14:51;;;;;;;6.33;1.50;;;;;;;;;;4937617;28;25095;-73
2021/10/04 13:17:16;;;;;;;5.13;1.60;;;;;;;;;;4932260;28;25183;-73
2021/10/04 13:19:42;;;;;;;5.50;1.03;;;;;;;;;;4931233;28;25088;-72
2021/10/04 13:22:07;;;;;;;3.30;1.23;;;;;;;;;;4934330;28;20751;-72
2021/10/04 13:24:34;;;;;;;5.30;1.10;;;;;;;;;;4938356;28;20840;-72
2021/10/04 13:26:59;;;;;;;6.13;0.83;;;;;;;;;;4933763;28;20205;-72
2021/10/04 13:29:24;;;;;;;5.37;1.10;;;;;;;;;;4933233;28;21020;-74
2021/10/04 13:31:50;;;;;;;1.83;0.70;;;;;;;;;;4934322;28;20184;-75
2021/10/04 13:34:15;;;;;;;2.77;1.00;;;;;;;;;;4930704;28;20508;-74
2021/10/04 13:36:41;;;;;;;4.43;1.20;;;;;;;;;;4928674;28;20222;-75
2021/10/04 13:39:07;;;;;;;3.77;1.23;;;;;;;;;;4930291;28;20235;-74
2021/10/04 13:41:33;;;;;;;3.33;1.10;;;;;;;;;;4937232;28;20215;-75
2021/10/04 13:43:58;;;;;;;3.17;0.90;;;;;;;;;;4932607;28;20483;-75
2021/10/04 13:46:23;;;;;;;3.97;1.40;;;;;;;;;;4932016;28;20215;-76
2021/10/04 13:48:49;;;;;;;2.70;0.90;;;;;;;;;;4935985;28;20696;-73
2021/10/04 13:51:15;;;;;;;4.07;1.00;;;;;;;;;;4935246;28;20232;-74
2021/10/04 13:53:48;;;;;;;4.67;1.13;;;;;;;;;;4927378;28;21374;-73
2021/10/04 13:56:13;;;;;;;2.97;1.00;;;;;;;;;;4933089;28;20184;-73
2021/10/04 13:58:41;;;;;;;3.50;1.17;;;;;;;;;;4932882;28;21167;-76
2021/10/04 14:01:09;;;;;;;3.03;0.77;;;;;;;;;;4931507;28;20179;-74
2021/10/04 14:03:34;;;;;;;3.60;0.80;;;;;;;;;;4932432;28;20998;-76
2021/10/04 14:06:00;;;;;;;3.27;1.47;;;;;;;;;;4930780;28;20436;-72
2021/10/04 14:08:25;;;;;;;3.40;0.77;;;;;;;;;;4933818;28;20188;-73
2021/10/04 14:10:51;;;;;;;4.10;0.93;;;;;;;;;;4930188;28;20210;-73
2021/10/04 14:13:16;;;;;;;2.00;0.80;;;;;;;;;;4931981;28;20214;-73
2021/10/04 14:15:41;;;;;;;5.07;1.10;;;;;;;;;;4930345;28;26416;-73
2021/10/04 14:18:06;;;;;;;2.20;1.00;;;;;;;;;;4932743;28;20729;-73
2021/10/04 14:20:32;;;;;;;3.00;0.80;;;;;;;;;;4924137;28;20225;-74
2021/10/04 14:22:57;;;;;;;5.67;0.83;;;;;;;;;;4934909;28;20207;-73
2021/10/04 14:25:23;;;;;;;2.07;0.93;;;;;;;;;;4934492;28;20556;-72
2021/10/04 14:27:48;;;;;;;1.97;0.80;;;;;;;;;;4935970;28;20558;-73
2021/10/04 14:30:14;;;;;;;3.20;0.70;;;;;;;;;;4935043;28;20214;-72
2021/10/04 14:32:40;;;;;;;2.10;0.73;;;;;;;;;;4937016;28;20265;-72
2021/10/04 14:35:09;;;;;;;3.67;0.90;;;;;;;;;;4935681;28;20461;-72
2021/10/04 14:37:35;;;;;;;1.83;1.00;;;;;;;;;;4930801;28;20184;-72
2021/10/04 14:40:03;;;;;;;1.77;1.00;;;;;;;;;;4943097;28;20927;-72
2021/10/04 14:42:28;;;;;;;1.77;0.80;;;;;;;;;;4934942;28;20658;-72